KBGR/BGR METAR and TAF weather

Enter ICAO airport designator
Station Type Date Time Source
KBGR METAR 2020/07/12 17:53 UTC NOAA

KBGR 121753Z 17012KT 10SM FEW040 SCT047 BKN065 26/21 A2952 RMK AO2 SLP992 T02610211 10261 20206 58009


Station Type Date Time Source
KBGR Decoded METAR 2020/07/12 17:53 UTC NOAA

BANGOR INT'L AIRPORT, ME, United States (KBGR) 44-48N 068-49W 57M
Jul 12, 2020 - 01:53 PM EDT / 2020.07.12 1753 UTC
Wind: from the S (170 degrees) at 14 MPH (12 KT):0
Visibility: 10 mile(s):0
Sky conditions: mostly cloudy
Temperature: 79.0 F (26.1 C)
Dew Point: 70.0 F (21.1 C)
Relative Humidity: 73%
Pressure (altimeter): 29.52 in. Hg (999 hPa)
Pressure tendency: 0.03 inches (0.9 hPa) lower than three hours ago
ob: KBGR 121753Z 17012KT 10SM FEW040 SCT047 BKN065 26/21 A2952 RMK AO2 SLP992 T02610211 10261 20206 58009
cycle: 18

Station Type Date Time Source
KBGR TAF 2020/07/12 18:48 UTC NOAA

TAF KBGR 121747Z 1218/1318 19010G18KT P6SM VCSH BKN035
FM122300 24008KT P6SM SCT060

Example: see airport list